Time;durP1;ratioP1;P1;durP2;ratioP2;P2;SDS_P1;SDS_P2;PMS_P1;PMS_P2;Temp;Humidity;BMP_temperature;BMP_pressure;BME280_temperature;BME280_humidity;BME280_pressure;Samples;Min_cycle;Max_cycle;Signal;HPM_P1;HPM_P2
2022/01/25 00:26:48;;;;;;;260.63;101.78;;;-3.60;67.00;;;;;;5076447;28;19919;-61
2022/01/25 00:29:27;;;;;;;214.93;83.47;;;-3.70;67.20;;;;;;5076507;28;20067;-62
2022/01/25 00:31:53;;;;;;;230.00;87.77;;;-3.80;67.90;;;;;;5076358;28;20054;-61
2022/01/25 00:34:19;;;;;;;188.17;77.03;;;-3.90;67.70;;;;;;5076356;28;20029;-61
2022/01/25 00:36:45;;;;;;;222.30;87.17;;;-3.90;67.80;;;;;;5075909;28;20127;-61
2022/01/25 00:39:11;;;;;;;174.53;73.73;;;-4.00;68.50;;;;;;5076306;28;20085;-61
2022/01/25 00:41:36;;;;;;;188.20;74.40;;;-4.10;69.40;;;;;;5076146;28;20434;-61
2022/01/25 00:44:02;;;;;;;176.47;67.67;;;-4.10;70.00;;;;;;5076188;28;20025;-61
2022/01/25 00:46:29;;;;;;;177.23;66.23;;;-4.10;70.60;;;;;;5076127;28;20052;-61
2022/01/25 00:49:02;;;;;;;164.57;64.40;;;-4.00;70.40;;;;;;5076070;28;20047;-61
2022/01/25 00:54:26;;;;;;;149.13;59.70;;;-4.00;68.60;;;;;;5076090;28;20454;-61
2022/01/25 00:56:52;;;;;;;144.57;56.83;;;-4.00;69.60;;;;;;5075969;28;20480;-62
2022/01/25 00:59:21;;;;;;;134.47;53.70;;;-4.00;69.70;;;;;;5075835;28;20027;-61
2022/01/25 01:01:49;;;;;;;134.70;54.37;;;-4.00;69.30;;;;;;5075941;28;20039;-61
2022/01/25 01:04:16;;;;;;;151.40;61.70;;;-4.00;69.10;;;;;;5075971;28;20434;-62
2022/01/25 01:06:44;;;;;;;132.73;52.13;;;-4.10;69.20;;;;;;5075765;28;20374;-62
2022/01/25 01:09:11;;;;;;;132.63;53.90;;;-4.00;69.80;;;;;;5075807;28;20388;-61
2022/01/25 01:11:45;;;;;;;162.40;66.53;;;-4.10;68.60;;;;;;5075663;28;20056;-61
2022/01/25 01:30:31;;;;;;;323.87;125.57;;;-4.30;70.10;;;;;;5075167;28;19911;-61
2022/01/25 01:36:06;;;;;;;225.10;81.60;;;-4.40;71.40;;;;;;5075304;28;20481;-62
2022/01/25 01:43:59;;;;;;;217.67;82.00;;;-4.40;72.90;;;;;;5062356;28;19904;-61
2022/01/25 01:46:58;;;;;;;197.97;73.43;;;-4.40;72.80;;;;;;5075043;28;20040;-61
2022/01/25 01:49:25;;;;;;;216.67;93.10;;;-4.40;73.80;;;;;;5074755;28;20033;-62
2022/01/25 01:51:51;;;;;;;279.57;109.43;;;-4.40;73.20;;;;;;5075244;28;20039;-61
2022/01/25 01:54:17;;;;;;;270.40;107.53;;;-4.50;71.70;;;;;;5074809;28;20390;-62
2022/01/25 01:56:44;;;;;;;262.53;103.33;;;-4.60;72.40;;;;;;5075008;28;20074;-61
2022/01/25 01:59:14;;;;;;;207.90;84.33;;;-4.60;72.10;;;;;;5074815;28;20021;-62
2022/01/25 02:01:41;;;;;;;185.50;73.00;;;-4.70;73.40;;;;;;5074711;28;20051;-62
2022/01/25 02:04:10;;;;;;;180.07;70.07;;;-4.70;73.00;;;;;;5074536;28;20100;-62
2022/01/25 02:06:36;;;;;;;154.13;62.93;;;-4.60;72.30;;;;;;5074614;28;20036;-62
2022/01/25 02:09:05;;;;;;;144.80;62.07;;;-4.50;72.30;;;;;;5074582;28;20020;-62
2022/01/25 02:11:30;;;;;;;151.87;58.73;;;-4.60;70.80;;;;;;5074767;28;20371;-62
2022/01/25 02:14:02;;;;;;;162.57;63.33;;;-4.60;71.00;;;;;;5074436;28;20051;-61
2022/01/25 02:24:36;;;;;;;178.30;68.83;;;-4.60;70.40;;;;;;5074526;28;20100;-62
2022/01/25 02:27:02;;;;;;;129.93;53.80;;;-4.70;70.50;;;;;;5074154;28;20476;-62
2022/01/25 02:29:28;;;;;;;119.70;49.80;;;-4.70;71.60;;;;;;5074186;28;20016;-62
2022/01/25 02:31:55;;;;;;;114.73;47.40;;;-4.80;72.10;;;;;;5074051;28;20027;-62
2022/01/25 02:34:22;;;;;;;125.43;50.60;;;-4.80;72.70;;;;;;5073938;28;20020;-61
2022/01/25 02:37:02;;;;;;;129.20;50.57;;;-4.70;73.00;;;;;;5074021;28;20043;-62
2022/01/25 02:39:28;;;;;;;96.07;41.13;;;-4.80;72.60;;;;;;5073987;28;20020;-62
2022/01/25 02:41:55;;;;;;;100.30;40.13;;;-4.90;72.60;;;;;;5073436;28;20055;-62
2022/01/25 02:44:26;;;;;;;98.20;42.20;;;-4.90;72.20;;;;;;5073957;28;20027;-62
2022/01/25 02:49:23;;;;;;;106.23;41.40;;;-4.90;71.30;;;;;;5073849;28;20013;-61
2022/01/25 02:51:49;;;;;;;77.80;33.80;;;-4.90;71.10;;;;;;5073994;28;20028;-62
2022/01/25 02:54:16;;;;;;;87.00;37.63;;;-4.90;71.60;;;;;;5073677;28;20021;-62
2022/01/25 02:56:44;;;;;;;81.50;32.67;;;-5.00;71.40;;;;;;5073719;28;20032;-61
2022/01/25 02:59:11;;;;;;;79.53;35.10;;;-5.00;71.40;;;;;;5073774;28;20025;-62
2022/01/25 03:01:38;;;;;;;104.93;44.33;;;-5.00;70.80;;;;;;5073318;28;20490;-61
2022/01/25 03:04:05;;;;;;;111.33;46.47;;;-5.00;70.10;;;;;;5073664;28;20020;-61
2022/01/25 03:06:31;;;;;;;81.30;33.33;;;-5.00;70.70;;;;;;5073758;28;20039;-61
2022/01/25 03:08:57;;;;;;;87.10;38.13;;;-5.10;72.90;;;;;;5073427;28;20042;-62
2022/01/25 03:11:24;;;;;;;163.40;65.13;;;-5.10;72.60;;;;;;5055768;28;20463;-61
2022/01/25 03:13:54;;;;;;;133.57;54.77;;;-5.10;72.60;;;;;;5073434;28;20471;-62
2022/01/25 03:16:34;;;;;;;108.27;44.33;;;-5.30;74.90;;;;;;5073214;28;20028;-62
2022/01/25 03:19:03;;;;;;;112.27;45.93;;;-5.40;77.40;;;;;;5073397;28;20043;-62
2022/01/25 03:23:56;;;;;;;128.60;51.30;;;-5.30;77.70;;;;;;5073752;28;20032;-62
2022/01/25 03:26:23;;;;;;;112.03;42.43;;;-5.20;76.10;;;;;;5073307;28;20021;-62
2022/01/25 03:28:51;;;;;;;130.37;53.43;;;-5.30;76.20;;;;;;5073502;28;20025;-62
2022/01/25 03:31:17;;;;;;;86.57;37.27;;;-5.30;76.70;;;;;;5073230;28;20103;-62
2022/01/25 03:33:43;;;;;;;92.43;37.83;;;-5.30;77.00;;;;;;5073314;28;20095;-62
2022/01/25 03:36:10;;;;;;;87.33;36.70;;;-5.30;77.70;;;;;;5072939;28;20076;-62
2022/01/25 03:38:37;;;;;;;96.40;38.80;;;-5.30;76.10;;;;;;5073233;28;20032;-62
2022/01/25 03:41:05;;;;;;;91.73;38.23;;;-5.20;74.30;;;;;;5073128;28;20024;-62
2022/01/25 03:43:31;;;;;;;97.47;41.87;;;-5.30;72.80;;;;;;5073085;28;20016;-62
2022/01/25 03:46:09;;;;;;;158.00;64.63;;;-5.30;71.60;;;;;;5072940;28;20027;-61
2022/01/25 03:51:01;;;;;;;110.90;46.13;;;-5.60;72.70;;;;;;5073363;28;20024;-62
2022/01/25 03:53:26;;;;;;;116.70;48.20;;;-5.60;74.60;;;;;;5075236;28;20028;-62
2022/01/25 03:55:52;;;;;;;102.80;45.60;;;-5.60;73.70;;;;;;5077214;28;20097;-62
2022/01/25 03:58:19;;;;;;;121.53;47.33;;;-5.60;73.50;;;;;;5077132;28;20538;-62
2022/01/25 04:00:45;;;;;;;136.13;57.97;;;-5.60;74.50;;;;;;5076984;28;20462;-62
2022/01/25 04:08:09;;;;;;;111.57;45.50;;;-5.60;73.00;;;;;;5076924;28;20390;-62
2022/01/25 04:10:35;;;;;;;108.77;42.07;;;-5.60;71.30;;;;;;5076930;28;20088;-62
2022/01/25 04:13:00;;;;;;;87.97;38.23;;;-5.70;72.00;;;;;;5076702;28;20370;-61
2022/01/25 04:15:26;;;;;;;81.77;35.93;;;-5.60;72.80;;;;;;5076887;28;20044;-61
2022/01/25 04:18:02;;;;;;;85.57;34.57;;;-5.60;72.30;;;;;;5076741;28;20099;-62
2022/01/25 04:20:32;;;;;;;99.03;43.47;;;-5.60;71.70;;;;;;5076619;28;20067;-61
2022/01/25 04:25:42;;;;;;;85.72;35.03;;;-5.70;71.90;;;;;;5076836;28;20027;-62
2022/01/25 04:28:07;;;;;;;88.40;36.60;;;-5.70;73.00;;;;;;5076379;28;20029;-61
2022/01/25 04:30:33;;;;;;;88.80;38.43;;;-5.70;74.00;;;;;;5076489;28;20448;-62
2022/01/25 04:33:03;;;;;;;86.93;38.90;;;-5.70;74.50;;;;;;5076662;28;20052;-61
2022/01/25 04:49:21;;;;;;;79.40;36.13;;;-5.80;74.60;;;;;;5076245;28;20028;-62
2022/01/25 04:59:32;;;;;;;76.00;31.63;;;-5.80;73.60;;;;;;5075756;28;20252;-62
2022/01/25 05:02:07;;;;;;;76.05;33.90;;;-5.90;72.60;;;;;;5076201;28;20059;-62
2022/01/25 05:04:39;;;;;;;70.40;31.77;;;-5.90;72.90;;;;;;5075064;28;20379;-61
2022/01/25 05:09:45;;;;;;;78.07;32.30;;;-5.90;73.50;;;;;;5075804;28;20028;-61
2022/01/25 05:12:12;;;;;;;94.10;42.47;;;-6.00;75.50;;;;;;5075432;28;20545;-62
2022/01/25 05:14:48;;;;;;;93.50;39.80;;;-6.00;74.10;;;;;;5075732;28;20020;-61
2022/01/25 05:17:18;;;;;;;90.33;37.57;;;-6.10;75.10;;;;;;5075480;28;20032;-61
2022/01/25 05:22:28;;;;;;;97.53;37.27;;;-6.10;74.80;;;;;;5075576;28;20427;-61
2022/01/25 05:24:54;;;;;;;83.80;35.60;;;-6.10;75.30;;;;;;5075525;28;20028;-62
2022/01/25 05:27:26;;;;;;;82.07;36.47;;;-6.10;75.50;;;;;;5075210;28;20024;-61
2022/01/25 05:29:52;;;;;;;131.73;57.67;;;-6.10;75.50;;;;;;5075425;28;20107;-61
2022/01/25 05:32:18;;;;;;;85.60;36.63;;;-6.20;73.80;;;;;;5075499;28;20605;-61
2022/01/25 05:34:44;;;;;;;103.47;45.60;;;-6.20;74.70;;;;;;5075338;28;20027;-62
2022/01/25 05:37:10;;;;;;;100.90;42.23;;;-6.20;74.70;;;;;;5075078;28;20052;-61
2022/01/25 05:39:37;;;;;;;105.10;43.90;;;-6.20;73.80;;;;;;5075237;28;20017;-62
2022/01/25 05:47:33;;;;;;;127.93;53.50;;;-6.20;74.00;;;;;;5075048;28;20031;-61
2022/01/25 05:49:59;;;;;;;118.97;47.87;;;-6.20;75.00;;;;;;5074995;28;20445;-61
2022/01/25 05:52:26;;;;;;;114.43;49.17;;;-6.20;75.40;;;;;;5074998;28;20051;-61
2022/01/25 05:54:52;;;;;;;110.40;48.57;;;-6.20;75.90;;;;;;5074967;28;20039;-62
2022/01/25 05:57:18;;;;;;;96.77;38.90;;;-6.20;75.60;;;;;;5074424;28;20414;-62
2022/01/25 05:59:44;;;;;;;114.13;45.10;;;-6.30;75.70;;;;;;5074340;28;20017;-62
2022/01/25 06:02:10;;;;;;;93.73;40.73;;;-6.30;75.00;;;;;;5066110;28;20547;-62
2022/01/25 06:04:36;;;;;;;97.60;41.93;;;-6.40;74.50;;;;;;5067469;28;20043;-62
2022/01/25 06:07:02;;;;;;;98.90;43.30;;;-6.40;75.90;;;;;;5058297;28;20108;-62
2022/01/25 06:09:28;;;;;;;111.23;47.17;;;-6.50;75.00;;;;;;5067296;28;20501;-60
2022/01/25 06:11:54;;;;;;;110.10;47.10;;;-6.40;74.50;;;;;;5071885;28;20467;-62
2022/01/25 06:14:21;;;;;;;133.43;51.43;;;-6.40;74.00;;;;;;5073274;28;20403;-63
2022/01/25 06:16:47;;;;;;;123.43;49.63;;;-6.40;72.70;;;;;;5069314;28;20069;-62
2022/01/25 06:19:13;;;;;;;141.80;57.93;;;-6.40;72.90;;;;;;5060088;28;20409;-60
2022/01/25 06:21:38;;;;;;;116.83;47.10;;;-6.40;72.60;;;;;;5073408;28;20153;-62
2022/01/25 06:24:04;;;;;;;146.00;57.90;;;-6.40;74.10;;;;;;5072602;28;20074;-62
2022/01/25 06:26:30;;;;;;;116.33;47.33;;;-6.50;73.50;;;;;;5072615;28;21896;-59
2022/01/25 06:28:56;;;;;;;126.60;50.83;;;-6.40;74.40;;;;;;5056430;28;20056;-60
2022/01/25 06:31:22;;;;;;;130.60;52.73;;;-6.40;74.70;;;;;;5052024;28;20473;-59
2022/01/25 06:33:48;;;;;;;137.47;55.97;;;-6.40;74.10;;;;;;5051236;28;20482;-61
2022/01/25 06:36:14;;;;;;;126.37;50.90;;;-6.30;74.20;;;;;;5053469;28;20079;-59
2022/01/25 06:38:41;;;;;;;119.50;45.73;;;-6.40;74.70;;;;;;5064207;28;20043;-61
2022/01/25 06:41:09;;;;;;;149.50;59.97;;;-6.50;77.00;;;;;;5065693;28;20029;-62
2022/01/25 06:43:37;;;;;;;168.83;63.47;;;-6.50;76.80;;;;;;5054012;28;20044;-60
2022/01/25 06:46:03;;;;;;;185.27;70.90;;;-6.50;78.70;;;;;;5064544;28;20383;-61
2022/01/25 06:48:31;;;;;;;166.97;67.30;;;-6.50;77.70;;;;;;5055814;28;20124;-62
2022/01/25 06:50:57;;;;;;;184.73;75.33;;;-6.50;77.50;;;;;;5052810;28;20032;-62
2022/01/25 06:53:23;;;;;;;198.87;81.10;;;-6.50;77.40;;;;;;5053152;28;20032;-59
2022/01/25 06:55:48;;;;;;;234.13;87.00;;;-6.50;78.90;;;;;;5054972;28;20029;-61
2022/01/25 06:58:14;;;;;;;170.57;63.47;;;-6.70;83.40;;;;;;5053498;28;20017;-59
2022/01/25 07:00:40;;;;;;;150.60;55.10;;;-6.70;85.70;;;;;;5052982;28;20479;-61
2022/01/25 07:03:06;;;;;;;128.57;52.63;;;-6.60;85.20;;;;;;5053286;28;20025;-61
2022/01/25 07:05:32;;;;;;;127.80;52.17;;;-6.50;85.30;;;;;;5065358;28;20025;-63
2022/01/25 07:07:58;;;;;;;151.93;60.60;;;-6.30;81.60;;;;;;5071195;28;20115;-59
2022/01/25 07:10:24;;;;;;;149.70;58.67;;;-6.20;78.80;;;;;;5054337;28;20052;-61
2022/01/25 07:12:50;;;;;;;152.00;56.20;;;-6.10;76.00;;;;;;5071899;28;20441;-61
2022/01/25 07:15:16;;;;;;;160.20;64.93;;;-6.10;75.10;;;;;;5064528;28;20100;-64
2022/01/25 07:17:42;;;;;;;136.07;56.87;;;-6.10;75.70;;;;;;5062269;28;20033;-62
2022/01/25 07:20:09;;;;;;;130.33;55.17;;;-6.00;75.30;;;;;;5070065;28;20493;-60
2022/01/25 07:22:36;;;;;;;135.03;53.93;;;-5.90;74.70;;;;;;5060845;28;20020;-60
2022/01/25 07:25:05;;;;;;;127.30;52.03;;;-5.80;74.90;;;;;;5062107;28;20077;-61
2022/01/25 07:27:31;;;;;;;186.03;71.47;;;-5.80;75.00;;;;;;5051426;28;20083;-60
2022/01/25 07:29:57;;;;;;;205.23;78.37;;;-5.60;74.50;;;;;;5066476;28;20024;-61
2022/01/25 07:32:23;;;;;;;504.60;214.90;;;-5.60;74.10;;;;;;5071542;28;20019;-62
2022/01/25 07:34:48;;;;;;;334.33;138.03;;;-5.50;75.70;;;;;;5057814;28;20482;-60
2022/01/25 07:37:14;;;;;;;457.17;192.80;;;-5.50;76.30;;;;;;5050302;28;20049;-59
2022/01/25 07:39:42;;;;;;;345.33;138.77;;;-5.60;75.40;;;;;;5052040;28;20041;-61
2022/01/25 07:42:09;;;;;;;318.73;128.80;;;-5.60;78.10;;;;;;5052483;28;20037;-58
2022/01/25 07:44:37;;;;;;;294.27;113.80;;;-5.20;76.50;;;;;;5061974;28;20386;-61
2022/01/25 07:47:03;;;;;;;254.80;103.20;;;-4.70;72.20;;;;;;5069870;28;20440;-65
2022/01/25 07:49:31;;;;;;;259.60;104.70;;;-3.80;69.50;;;;;;5070819;28;20033;-61
2022/01/25 07:51:57;;;;;;;292.50;118.77;;;-2.30;62.90;;;;;;5071984;28;20024;-61
2022/01/25 07:54:24;;;;;;;293.83;119.93;;;-0.70;57.20;;;;;;5073055;28;20028;-58
2022/01/25 07:56:50;;;;;;;269.90;110.40;;;0.40;53.50;;;;;;5052443;28;20029;-61
2022/01/25 07:59:16;;;;;;;376.63;157.10;;;1.40;51.10;;;;;;5070362;28;20506;-58
2022/01/25 08:01:43;;;;;;;455.20;211.70;;;2.10;48.10;;;;;;5053091;28;20378;-58
2022/01/25 08:04:09;;;;;;;378.37;164.60;;;2.50;46.40;;;;;;5050750;28;20359;-60
2022/01/25 08:06:37;;;;;;;410.00;177.90;;;2.40;44.90;;;;;;5056054;28;20471;-66
2022/01/25 08:09:07;;;;;;;411.47;182.27;;;2.50;45.80;;;;;;5064020;28;20082;-60
2022/01/25 08:11:33;;;;;;;431.80;201.87;;;2.60;45.40;;;;;;5069003;28;20095;-61
2022/01/25 08:14:17;;;;;;;385.93;169.40;;;2.80;44.00;;;;;;5064914;28;20020;-61
2022/01/25 08:16:52;;;;;;;379.05;165.48;;;3.10;44.30;;;;;;5069635;28;20021;-59
2022/01/25 08:19:19;;;;;;;384.10;174.17;;;3.00;43.30;;;;;;5068145;28;20116;-60
2022/01/25 08:21:47;;;;;;;389.53;176.33;;;3.40;43.90;;;;;;5068175;28;20020;-61
2022/01/25 08:24:16;;;;;;;383.63;177.97;;;3.70;43.40;;;;;;5053103;28;20141;-56
2022/01/25 08:26:42;;;;;;;377.00;176.53;;;3.70;42.20;;;;;;5070655;28;20025;-59
2022/01/25 08:29:09;;;;;;;386.17;176.83;;;3.40;43.20;;;;;;5065722;28;20131;-58
2022/01/25 08:31:35;;;;;;;639.90;299.67;;;3.40;42.90;;;;;;5060976;28;20028;-60
2022/01/25 08:34:01;;;;;;;635.37;329.27;;;3.80;41.50;;;;;;5059499;28;20470;-59
2022/01/25 08:36:27;;;;;;;497.80;259.13;;;3.40;42.20;;;;;;5066130;28;20056;-61
2022/01/25 08:38:53;;;;;;;463.27;239.27;;;2.70;43.80;;;;;;5070689;28;20043;-61
2022/01/25 08:41:19;;;;;;;444.57;224.70;;;2.50;44.20;;;;;;5071514;28;20032;-58
2022/01/25 08:43:46;;;;;;;435.57;214.97;;;2.20;44.20;;;;;;5071964;28;20101;-57
2022/01/25 08:46:12;;;;;;;380.37;185.90;;;2.50;44.80;;;;;;5068021;28;20021;-56
2022/01/25 08:48:38;;;;;;;362.97;173.40;;;2.30;43.80;;;;;;5071752;28;20050;-57
2022/01/25 08:51:04;;;;;;;293.37;141.10;;;2.30;45.30;;;;;;5071829;28;20043;-59
2022/01/25 08:53:32;;;;;;;276.37;131.17;;;2.40;44.70;;;;;;5070951;28;20027;-62
2022/01/25 08:55:58;;;;;;;254.07;127.30;;;2.10;45.50;;;;;;5072158;28;20021;-61
2022/01/25 08:58:23;;;;;;;259.60;127.13;;;1.70;45.30;;;;;;5072589;28;20082;-58
2022/01/25 09:00:49;;;;;;;246.43;117.00;;;1.80;46.10;;;;;;5063996;28;20038;-57
2022/01/25 09:03:15;;;;;;;240.97;118.33;;;1.80;46.80;;;;;;5073037;28;20028;-60
2022/01/25 09:05:41;;;;;;;220.73;107.50;;;1.90;47.00;;;;;;5072606;28;20017;-60
2022/01/25 09:08:07;;;;;;;204.47;95.43;;;1.90;46.20;;;;;;5061191;28;20025;-58
2022/01/25 09:10:33;;;;;;;200.90;93.30;;;1.90;47.70;;;;;;5057430;28;20035;-57
2022/01/25 09:13:00;;;;;;;248.40;118.90;;;1.60;47.50;;;;;;5062156;28;20064;-60
2022/01/25 09:15:26;;;;;;;207.23;99.37;;;1.50;47.50;;;;;;5054960;28;20025;-59
2022/01/25 09:17:52;;;;;;;172.13;83.82;;;1.70;49.00;;;;;;5055693;28;20017;-59
2022/01/25 09:20:19;;;;;;;154.10;70.70;;;1.80;47.50;;;;;;5058143;28;20487;-59
2022/01/25 09:22:45;;;;;;;136.17;60.97;;;1.70;46.60;;;;;;5056796;28;20047;-57
2022/01/25 09:25:12;;;;;;;115.83;56.77;;;1.50;47.40;;;;;;5071969;28;20092;-60
2022/01/25 09:27:38;;;;;;;132.05;61.10;;;1.30;48.80;;;;;;5072138;28;20496;-58
2022/01/25 09:30:05;;;;;;;137.23;61.92;;;1.50;47.80;;;;;;5072150;28;20021;-59
2022/01/25 09:32:30;;;;;;;113.55;54.28;;;1.50;47.10;;;;;;5073191;28;20107;-59
2022/01/25 09:34:56;;;;;;;111.60;50.80;;;1.60;47.90;;;;;;5065042;28;20103;-57
2022/01/25 09:37:22;;;;;;;96.88;47.50;;;1.80;47.60;;;;;;5067262;28;20102;-60
2022/01/25 09:39:47;;;;;;;113.70;53.03;;;2.30;46.10;;;;;;5072085;28;20039;-59
2022/01/25 09:42:13;;;;;;;100.72;46.90;;;2.60;43.50;;;;;;5061297;28;20514;-59
2022/01/25 09:44:41;;;;;;;86.15;40.60;;;2.80;44.90;;;;;;5055276;28;20108;-60
2022/01/25 09:47:09;;;;;;;77.28;37.15;;;3.20;44.00;;;;;;5055131;28;20025;-59
2022/01/25 09:49:36;;;;;;;70.72;35.13;;;3.60;42.50;;;;;;5055994;28;20044;-60
2022/01/25 09:52:04;;;;;;;69.95;36.03;;;3.50;42.90;;;;;;5068021;28;20077;-60
2022/01/25 09:54:34;;;;;;;83.68;42.88;;;3.70;42.90;;;;;;5054111;28;20040;-59
2022/01/25 09:57:01;;;;;;;68.03;36.63;;;3.70;41.60;;;;;;5061472;28;20028;-60
2022/01/25 09:59:29;;;;;;;79.03;38.95;;;3.50;44.20;;;;;;5056852;28;20025;-60
2022/01/25 10:01:56;;;;;;;89.40;47.30;;;3.70;42.50;;;;;;5050469;28;20479;-61
2022/01/25 10:04:36;;;;;;;86.22;43.50;;;3.70;42.30;;;;;;5050722;28;20021;-59
2022/01/25 10:07:04;;;;;;;86.47;45.75;;;4.00;42.50;;;;;;5040554;28;20123;-60
2022/01/25 10:09:32;;;;;;;72.00;39.60;;;4.30;42.30;;;;;;5062097;28;20683;-58
2022/01/25 10:12:25;;;;;;;71.60;38.25;;;4.40;40.50;;;;;;5048830;28;20466;-61
2022/01/25 10:15:12;;;;;;;70.25;36.75;;;4.60;41.00;;;;;;5060186;28;20048;-61
2022/01/25 10:17:42;;;;;;;59.58;31.90;;;4.80;38.80;;;;;;5055661;28;20063;-60
2022/01/25 10:20:25;;;;;;;67.90;35.15;;;4.70;39.30;;;;;;5058235;28;20024;-61
2022/01/25 10:22:50;;;;;;;61.97;33.08;;;4.90;39.20;;;;;;5057488;28;20040;-60
2022/01/25 10:25:36;;;;;;;65.82;36.97;;;4.90;39.00;;;;;;5057286;28;20021;-61
2022/01/25 10:28:04;;;;;;;52.63;29.80;;;5.00;38.30;;;;;;5056167;28;20037;-61
2022/01/25 10:30:50;;;;;;;49.58;27.73;;;4.70;37.60;;;;;;5063493;28;20024;-57
2022/01/25 10:33:33;;;;;;;48.03;26.08;;;4.70;37.70;;;;;;5053377;28;20549;-59
2022/01/25 10:36:11;;;;;;;40.78;23.50;;;4.80;36.30;;;;;;5069832;28;20054;-60
2022/01/25 10:38:38;;;;;;;40.75;21.95;;;5.40;36.80;;;;;;5063579;28;20073;-58
2022/01/25 10:41:09;;;;;;;31.17;17.25;;;6.00;35.90;;;;;;5057391;28;20086;-61
2022/01/25 10:43:38;;;;;;;36.80;19.50;;;5.70;32.20;;;;;;5057426;28;20110;-60
2022/01/25 10:46:07;;;;;;;30.15;19.20;;;5.70;33.80;;;;;;5053126;28;20449;-55
2022/01/25 10:48:34;;;;;;;31.73;19.10;;;5.80;33.90;;;;;;5049720;28;20430;-60
2022/01/25 10:51:09;;;;;;;31.33;19.58;;;6.20;33.60;;;;;;5050959;28;20029;-60
2022/01/25 10:53:35;;;;;;;35.00;19.95;;;6.80;33.00;;;;;;5050766;28;20021;-56
2022/01/25 10:56:01;;;;;;;38.03;19.58;;;7.30;32.50;;;;;;5051317;28;20024;-59
2022/01/25 10:58:28;;;;;;;45.58;25.50;;;7.50;30.40;;;;;;5052143;28;20028;-60
2022/01/25 11:00:55;;;;;;;59.28;32.90;;;7.50;29.30;;;;;;5051019;28;20045;-60
2022/01/25 11:03:42;;;;;;;50.00;28.70;;;7.40;31.50;;;;;;5048392;28;20636;-60
2022/01/25 11:06:27;;;;;;;51.72;30.63;;;7.70;31.30;;;;;;5033073;28;20495;-59
2022/01/25 11:08:57;;;;;;;54.40;31.73;;;7.60;29.90;;;;;;5051855;28;20057;-58
2022/01/25 11:11:30;;;;;;;44.58;29.00;;;7.00;30.00;;;;;;5051421;28;20029;-59
2022/01/25 11:14:00;;;;;;;44.50;27.45;;;7.00;31.20;;;;;;5050350;28;20029;-60
2022/01/25 11:16:26;;;;;;;42.67;24.50;;;7.50;30.80;;;;;;5051556;28;20025;-61
2022/01/25 11:18:51;;;;;;;43.00;26.95;;;8.10;30.50;;;;;;5051889;28;20024;-59
2022/01/25 11:21:19;;;;;;;46.40;28.27;;;8.40;29.70;;;;;;5051240;28;20052;-60
2022/01/25 11:23:45;;;;;;;51.78;29.52;;;8.60;30.00;;;;;;5051241;28;20028;-59
2022/01/25 11:26:14;;;;;;;45.88;27.52;;;8.70;29.70;;;;;;5056316;28;20009;-60
2022/01/25 11:28:41;;;;;;;47.30;27.73;;;8.50;29.90;;;;;;5056391;28;20411;-59
2022/01/25 11:31:11;;;;;;;58.67;33.65;;;8.40;30.00;;;;;;5055058;28;20028;-60
2022/01/25 11:33:42;;;;;;;70.30;39.38;;;8.50;29.30;;;;;;5062856;28;20066;-60
2022/01/25 11:36:09;;;;;;;57.55;34.42;;;8.10;29.30;;;;;;5057753;28;20041;-60
2022/01/25 11:38:44;;;;;;;55.45;29.80;;;8.30;29.70;;;;;;5060694;28;20037;-60
2022/01/25 11:41:12;;;;;;;51.88;30.52;;;7.90;28.50;;;;;;5056100;28;20029;-60
2022/01/25 11:43:41;;;;;;;78.68;42.55;;;7.90;29.70;;;;;;5056823;28;20024;-61
2022/01/25 11:46:07;;;;;;;77.15;45.25;;;8.00;30.00;;;;;;5068275;28;20032;-60
2022/01/25 11:48:43;;;;;;;76.38;44.05;;;7.60;30.90;;;;;;5058874;28;20060;-60
2022/01/25 11:51:19;;;;;;;70.55;43.05;;;7.90;31.20;;;;;;5056666;28;20029;-60
2022/01/25 11:53:49;;;;;;;66.88;38.60;;;8.10;31.10;;;;;;5061783;28;20039;-61
2022/01/25 11:56:17;;;;;;;67.85;39.78;;;8.30;31.10;;;;;;5054848;28;20025;-60
2022/01/25 11:58:57;;;;;;;63.58;39.53;;;8.20;31.00;;;;;;5050596;28;20025;-60
2022/01/25 12:01:26;;;;;;;66.15;39.25;;;8.40;31.30;;;;;;5050097;28;20013;-59
2022/01/25 12:04:03;;;;;;;64.43;39.75;;;8.70;30.00;;;;;;5050288;28;20475;-61
2022/01/25 12:06:34;;;;;;;67.93;39.97;;;9.10;29.80;;;;;;5056633;28;20036;-60
2022/01/25 12:09:41;;;;;;;65.90;40.30;;;9.40;29.80;;;;;;5068789;28;20111;-61
2022/01/25 12:12:12;;;;;;;72.05;43.47;;;9.30;30.00;;;;;;5056198;28;20040;-61
2022/01/25 12:14:53;;;;;;;74.68;44.25;;;9.60;30.00;;;;;;5046107;28;20394;-60
2022/01/25 12:17:19;;;;;;;111.15;58.88;;;9.60;29.70;;;;;;5064962;28;20035;-60
2022/01/25 12:19:58;;;;;;;83.30;46.28;;;9.30;30.20;;;;;;5067172;28;20040;-61
2022/01/25 12:25:10;;;;;;;63.05;36.05;;;9.60;30.00;;;;;;5062852;28;20035;-60
2022/01/25 12:27:55;;;;;;;55.05;33.30;;;9.70;29.30;;;;;;5061607;28;20048;-58
2022/01/25 12:30:27;;;;;;;66.18;39.15;;;9.80;29.40;;;;;;5058769;28;20048;-59
2022/01/25 12:33:04;;;;;;;61.60;37.45;;;9.90;29.20;;;;;;5057838;28;20036;-62
2022/01/25 12:35:44;;;;;;;71.15;42.95;;;9.80;28.50;;;;;;5059498;28;20393;-62
2022/01/25 12:38:19;;;;;;;55.38;34.30;;;9.70;28.50;;;;;;5058554;28;20033;-59
2022/01/25 12:40:57;;;;;;;45.70;28.65;;;9.20;29.00;;;;;;5059661;28;20483;-59
2022/01/25 12:43:24;;;;;;;57.35;34.80;;;8.90;29.70;;;;;;5068364;28;20120;-60
2022/01/25 12:46:06;;;;;;;55.40;34.38;;;9.00;29.70;;;;;;5068334;28;20029;-59
2022/01/25 12:48:40;;;;;;;47.13;30.17;;;9.40;29.30;;;;;;5053986;28;20033;-58
2022/01/25 12:51:09;;;;;;;51.55;30.70;;;9.60;29.00;;;;;;5053706;28;20108;-60
2022/01/25 12:53:38;;;;;;;61.35;37.58;;;9.80;28.60;;;;;;5054362;28;20086;-61
2022/01/25 12:56:09;;;;;;;66.43;39.08;;;9.60;29.00;;;;;;5054830;28;20060;-61
2022/01/25 12:58:36;;;;;;;79.50;42.30;;;9.20;29.50;;;;;;5055120;28;20036;-58
2022/01/25 13:01:17;;;;;;;63.85;35.85;;;9.20;30.00;;;;;;5053235;28;20415;-57
2022/01/25 13:03:44;;;;;;;81.95;43.60;;;9.30;29.90;;;;;;5053048;28;20025;-57
2022/01/25 13:06:15;;;;;;;64.05;38.50;;;9.60;29.00;;;;;;5053351;28;20021;-60
2022/01/25 13:09:13;;;;;;;70.50;39.78;;;9.80;28.80;;;;;;5053883;28;20021;-61
2022/01/25 13:11:48;;;;;;;63.17;36.07;;;9.60;29.70;;;;;;5053233;28;20478;-60
2022/01/25 13:15:26;;;;;;;57.80;34.10;;;9.70;29.00;;;;;;5054610;28;20120;-61
2022/01/25 13:17:06;;;;;;;58.10;34.97;;;9.80;29.10;;;;;;5042726;28;20033;-60
2022/01/25 13:19:41;;;;;;;43.83;29.23;;;9.90;29.20;;;;;;5037279;28;20458;-61
2022/01/25 13:22:14;;;;;;;47.75;29.33;;;10.00;29.30;;;;;;5054756;28;20052;-61
2022/01/25 13:24:49;;;;;;;72.85;41.00;;;9.80;28.20;;;;;;5054549;28;20494;-61
2022/01/25 13:27:17;;;;;;;61.45;36.85;;;9.40;28.50;;;;;;5054295;28;20033;-61
2022/01/25 13:32:35;;;;;;;51.10;31.33;;;9.40;28.70;;;;;;5055009;28;20060;-61
2022/01/25 13:35:37;;;;;;;59.75;37.53;;;9.50;28.60;;;;;;5054746;28;20386;-61
2022/01/25 13:38:21;;;;;;;50.55;33.45;;;9.90;28.80;;;;;;5054544;28;20037;-60
2022/01/25 13:41:16;;;;;;;45.42;29.42;;;9.90;27.60;;;;;;5055150;28;20084;-60
2022/01/25 13:46:34;;;;;;;43.63;27.35;;;10.00;28.00;;;;;;5055542;28;20032;-59
2022/01/25 13:49:12;;;;;;;32.78;23.85;;;9.80;28.20;;;;;;5055119;28;20041;-61
2022/01/25 13:51:40;;;;;;;35.38;24.17;;;9.80;28.20;;;;;;5055080;28;20100;-61
2022/01/25 13:54:06;;;;;;;38.40;25.25;;;9.80;28.10;;;;;;5054778;28;20013;-61
2022/01/25 13:56:34;;;;;;;35.35;22.88;;;9.50;29.10;;;;;;5055079;28;20043;-61
2022/01/25 13:59:03;;;;;;;33.70;22.20;;;9.20;28.10;;;;;;5054915;28;20033;-60
2022/01/25 14:01:30;;;;;;;34.95;22.33;;;9.40;28.40;;;;;;5054823;28;20021;-60
2022/01/25 14:04:08;;;;;;;33.15;19.23;;;9.30;28.80;;;;;;5054876;28;20109;-60
2022/01/25 14:06:41;;;;;;;28.10;19.30;;;9.40;27.40;;;;;;5054672;28;20027;-61
2022/01/25 14:09:27;;;;;;;25.80;17.80;;;9.20;27.80;;;;;;5054884;28;20122;-61
2022/01/25 14:25:40;;;;;;;25.23;16.50;;;9.70;27.40;;;;;;5054699;28;20528;-59
2022/01/25 14:28:13;;;;;;;21.60;15.48;;;9.90;28.60;;;;;;5054300;28;20360;-56
2022/01/25 14:30:42;;;;;;;26.15;16.70;;;10.00;27.80;;;;;;5054330;28;20423;-60
2022/01/25 14:33:14;;;;;;;36.00;25.02;;;10.10;27.80;;;;;;5054205;28;20108;-61
2022/01/25 14:35:41;;;;;;;31.70;21.05;;;9.80;28.00;;;;;;5054281;28;20086;-61
2022/01/25 14:38:20;;;;;;;100.97;64.00;;;9.80;27.50;;;;;;5052981;28;20476;-61
2022/01/25 14:41:08;;;;;;;48.15;34.17;;;9.30;31.40;;;;;;5054102;28;20025;-60
2022/01/25 14:43:38;;;;;;;59.28;35.92;;;9.10;28.80;;;;;;5054022;28;20410;-61
2022/01/25 14:46:05;;;;;;;51.05;30.50;;;9.10;28.70;;;;;;5054316;28;20021;-61
2022/01/25 14:48:35;;;;;;;62.88;34.65;;;9.10;28.40;;;;;;5053875;28;20537;-60